Marble Falls, TX

3:24 PM CDT on September 02, 2014 (GMT -0500)
Sherwood Shores | Change Station
CLOSE
Current Station
Personal Weather Station
Location: Granite Shoals, TX
Elevation: 834 ft
Nearby Weather Stations

Elev 834 ft 30.60 °N, 98.39 °W | Updated 46 seconds ago

Scattered Clouds
Scattered Clouds
95.5 °F
Feels Like 103 °F
N
2.3
Wind Variable Wind from SSE
Gusts 0.0 mph

Today
High -- | Low -- °F
--% Chance of Precip.
Yesterday
High -- | Low -- °F
Precip. -- in
7:10 AM 7:54 PM
First Quarter, 54% visible
Pressure 29.93 in
Visibility 10.0 miles
Clouds Scattered Clouds 6000 ft
Scattered Clouds 7500 ft
Scattered Clouds 8500 ft
Heat Index 103 °F
Dew Point 71 °F
Humidity 45%
Rainfall 0.00 in
Snow Depth Not available.
UV 7 out of 12
Pollen 8.40 out of 12
Air Quality Not available.
Flu Activity Not available.
METAR KDZB 022015Z AUTO 14008G15KT 10SM SCT060 SCT075 SCT085 35/18 A2993 RMK AO2 T03480181

More Conditions Fewer Conditions

Pressure 29.93 in
Visibility 10.0 miles
Clouds Scattered Clouds 6000 ft
Scattered Clouds 7500 ft
Scattered Clouds 8500 ft
Heat Index 103 °F
Dew Point 71 °F
Humidity 45%
Rainfall 0.00 in
Snow Depth Not available.
UV 7 out of 12
Pollen 8.40 out of 12
Air Quality Not available.
Flu Activity Not available.
METAR KDZB 022015Z AUTO 14008G15KT 10SM SCT060 SCT075 SCT085 35/18 A2993 RMK AO2 T03480181

More Conditions Fewer Conditions

10-Day Weather Forecast

Almanac

Astronomy

Sep. 02, 2014 Rise Set
Actual Time 7:10 AM CDT 7:54 PM CDT
Civil Twilight 6:46 AM CDT 8:19 PM CDT
Nautical Twilight 6:17 AM CDT 8:48 PM CDT
Astronomical Twilight 5:47 AM CDT 9:17 PM CDT
Moon 2:27 PM CDT 12:26 AM CDT
Length of Visible Light 13h 33m
Length of Day
12h 44m
Tomorrow will be 1m 47s shorter.
First Quarter, 54% of the Moon is Illuminated
Today
First Quarter
Sep 8
Full
Sep 15
Last Quarter
Sep 24
New
Oct 1
First Quarter

Today's Extremes

State Highs State Lows

Community

WunderPhotos

Upload Photos

1,749,757 photos uploaded!

WunderBlogs® & News

By Dr. Jeff Masters
Director of Meteorology, Weather Underground
By Kari Strenfel
Meteorologist, Weather Underground
By Christopher C. Burt
Weather Historian, Weather Underground
September 2, 2014
September 2, 2014
September 2, 2014

Nearby

Snow Depth

Station Depth Elevation
No new snow has been reported.

Earthquake Activity

City Distance Mag. Time & Date
No recent earthquake activity has been reported nearby.
Minimum magnitude displayed is 2.5.

Coastal Water Temperatures

Place Temperature
No Stations Reporting

Nearby Weather Stations